Terminal Aerodrome Forecast
Issued by NWS

Home | Current Version | Previous Version | Text Only | Print | Product List | Glossary On
Versions: 1 2 3 4 5 6 7 8 9 10 11 12 13 14 15 16
000
FTUS43 KJKL 311145 AAA
TAFSME
TAF AMD
KSME 311145Z 3112/0112 00000KT 1/2SM FG BKN003
     FM311300 00000KT P6SM SKC
     FM311600 VRB03KT P6SM SCT040
     FM312000 VRB03KT P6SM VCTS SCT040CB
     FM010800 00000KT P6SM BKN025=

USA.gov is the U.S. government's official web portal to all federal, state and local government web resources and services.